sensor_id;sensor_type;location;lat;lon;timestamp;P1;durP1;ratioP1;P2;durP2;ratioP2
60211;SDS011;46079;48.686;15.598;2023-03-30T00:01:51;7.65;;;1.98;;
60211;SDS011;46079;48.686;15.598;2023-03-30T00:04:18;7.30;;;2.08;;
60211;SDS011;46079;48.686;15.598;2023-03-30T00:06:49;7.82;;;2.22;;
60211;SDS011;46079;48.686;15.598;2023-03-30T00:09:15;6.47;;;1.98;;
60211;SDS011;46079;48.686;15.598;2023-03-30T00:11:40;7.05;;;1.90;;
60211;SDS011;46079;48.686;15.598;2023-03-30T00:14:07;7.95;;;2.05;;
60211;SDS011;46079;48.686;15.598;2023-03-30T00:16:32;6.35;;;1.90;;
60211;SDS011;46079;48.686;15.598;2023-03-30T00:18:58;6.82;;;1.88;;
60211;SDS011;46079;48.686;15.598;2023-03-30T00:21:24;8.15;;;2.30;;
60211;SDS011;46079;48.686;15.598;2023-03-30T00:23:52;8.65;;;2.33;;
60211;SDS011;46079;48.686;15.598;2023-03-30T00:26:17;7.80;;;1.90;;
60211;SDS011;46079;48.686;15.598;2023-03-30T00:28:43;7.00;;;2.00;;
60211;SDS011;46079;48.686;15.598;2023-03-30T00:31:09;7.70;;;1.88;;
60211;SDS011;46079;48.686;15.598;2023-03-30T00:33:35;6.50;;;1.90;;
60211;SDS011;46079;48.686;15.598;2023-03-30T00:36:01;7.55;;;2.28;;
60211;SDS011;46079;48.686;15.598;2023-03-30T00:38:27;7.72;;;1.85;;
60211;SDS011;46079;48.686;15.598;2023-03-30T00:40:54;7.93;;;2.17;;
60211;SDS011;46079;48.686;15.598;2023-03-30T00:43:21;7.75;;;1.80;;
60211;SDS011;46079;48.686;15.598;2023-03-30T00:45:50;6.88;;;2.00;;
60211;SDS011;46079;48.686;15.598;2023-03-30T00:48:20;7.88;;;2.00;;
60211;SDS011;46079;48.686;15.598;2023-03-30T00:50:49;6.78;;;1.60;;
60211;SDS011;46079;48.686;15.598;2023-03-30T00:55:52;6.97;;;1.67;;
60211;SDS011;46079;48.686;15.598;2023-03-30T00:58:19;6.40;;;1.90;;
60211;SDS011;46079;48.686;15.598;2023-03-30T01:00:46;7.38;;;2.28;;
60211;SDS011;46079;48.686;15.598;2023-03-30T01:03:14;7.30;;;2.10;;
60211;SDS011;46079;48.686;15.598;2023-03-30T01:05:43;6.90;;;2.00;;
60211;SDS011;46079;48.686;15.598;2023-03-30T01:08:10;7.35;;;2.13;;
60211;SDS011;46079;48.686;15.598;2023-03-30T01:10:38;7.28;;;2.03;;
60211;SDS011;46079;48.686;15.598;2023-03-30T01:13:04;6.13;;;1.80;;
60211;SDS011;46079;48.686;15.598;2023-03-30T01:15:31;5.13;;;1.65;;
60211;SDS011;46079;48.686;15.598;2023-03-30T01:18:15;6.60;;;1.90;;
60211;SDS011;46079;48.686;15.598;2023-03-30T01:24:47;7.38;;;2.13;;
60211;SDS011;46079;48.686;15.598;2023-03-30T01:41:05;6.22;;;1.80;;
60211;SDS011;46079;48.686;15.598;2023-03-30T01:46:27;6.90;;;2.00;;
60211;SDS011;46079;48.686;15.598;2023-03-30T01:51:27;6.57;;;1.85;;
60211;SDS011;46079;48.686;15.598;2023-03-30T01:59:15;6.05;;;1.80;;
60211;SDS011;46079;48.686;15.598;2023-03-30T02:01:41;7.05;;;2.08;;
60211;SDS011;46079;48.686;15.598;2023-03-30T02:04:14;7.07;;;2.10;;
60211;SDS011;46079;48.686;15.598;2023-03-30T02:06:53;6.88;;;1.75;;
60211;SDS011;46079;48.686;15.598;2023-03-30T02:11:50;5.60;;;1.67;;
60211;SDS011;46079;48.686;15.598;2023-03-30T02:14:19;7.18;;;1.95;;
60211;SDS011;46079;48.686;15.598;2023-03-30T02:16:51;6.88;;;1.80;;
60211;SDS011;46079;48.686;15.598;2023-03-30T02:19:22;5.72;;;1.83;;
60211;SDS011;46079;48.686;15.598;2023-03-30T02:21:48;6.72;;;1.85;;
60211;SDS011;46079;48.686;15.598;2023-03-30T02:24:16;7.10;;;2.00;;
60211;SDS011;46079;48.686;15.598;2023-03-30T02:26:45;5.97;;;1.65;;
60211;SDS011;46079;48.686;15.598;2023-03-30T02:29:13;6.47;;;1.80;;
60211;SDS011;46079;48.686;15.598;2023-03-30T02:31:39;5.70;;;1.60;;
60211;SDS011;46079;48.686;15.598;2023-03-30T02:34:07;6.47;;;1.67;;
60211;SDS011;46079;48.686;15.598;2023-03-30T02:36:54;6.28;;;1.85;;
60211;SDS011;46079;48.686;15.598;2023-03-30T02:59:45;6.50;;;1.75;;
60211;SDS011;46079;48.686;15.598;2023-03-30T03:02:34;7.00;;;1.83;;
60211;SDS011;46079;48.686;15.598;2023-03-30T03:05:04;6.05;;;1.90;;
60211;SDS011;46079;48.686;15.598;2023-03-30T03:07:32;4.85;;;1.45;;
60211;SDS011;46079;48.686;15.598;2023-03-30T03:09:59;6.07;;;1.60;;
60211;SDS011;46079;48.686;15.598;2023-03-30T03:12:25;6.38;;;1.83;;
60211;SDS011;46079;48.686;15.598;2023-03-30T03:14:53;6.22;;;1.70;;
60211;SDS011;46079;48.686;15.598;2023-03-30T03:17:18;7.22;;;1.92;;
60211;SDS011;46079;48.686;15.598;2023-03-30T03:19:46;6.97;;;1.98;;
60211;SDS011;46079;48.686;15.598;2023-03-30T03:22:12;7.25;;;1.85;;
60211;SDS011;46079;48.686;15.598;2023-03-30T03:24:38;6.43;;;1.90;;
60211;SDS011;46079;48.686;15.598;2023-03-30T03:27:04;5.72;;;1.67;;
60211;SDS011;46079;48.686;15.598;2023-03-30T03:29:30;6.82;;;2.00;;
60211;SDS011;46079;48.686;15.598;2023-03-30T03:31:56;6.18;;;1.80;;
60211;SDS011;46079;48.686;15.598;2023-03-30T03:34:22;6.53;;;1.85;;
60211;SDS011;46079;48.686;15.598;2023-03-30T03:36:50;6.55;;;1.80;;
60211;SDS011;46079;48.686;15.598;2023-03-30T03:39:17;6.28;;;1.88;;
60211;SDS011;46079;48.686;15.598;2023-03-30T03:41:43;6.20;;;1.77;;
60211;SDS011;46079;48.686;15.598;2023-03-30T03:44:08;5.88;;;1.70;;
60211;SDS011;46079;48.686;15.598;2023-03-30T03:46:34;6.15;;;1.90;;
60211;SDS011;46079;48.686;15.598;2023-03-30T03:48:59;7.68;;;2.00;;
60211;SDS011;46079;48.686;15.598;2023-03-30T03:51:25;6.85;;;1.95;;
60211;SDS011;46079;48.686;15.598;2023-03-30T03:53:53;5.50;;;1.80;;
60211;SDS011;46079;48.686;15.598;2023-03-30T03:56:20;5.97;;;1.50;;
60211;SDS011;46079;48.686;15.598;2023-03-30T03:58:45;6.13;;;1.75;;
60211;SDS011;46079;48.686;15.598;2023-03-30T04:01:11;5.90;;;1.60;;
60211;SDS011;46079;48.686;15.598;2023-03-30T04:03:38;7.68;;;1.83;;
60211;SDS011;46079;48.686;15.598;2023-03-30T04:06:15;6.22;;;1.80;;
60211;SDS011;46079;48.686;15.598;2023-03-30T04:08:40;6.50;;;1.77;;
60211;SDS011;46079;48.686;15.598;2023-03-30T04:11:07;5.72;;;1.77;;
60211;SDS011;46079;48.686;15.598;2023-03-30T04:13:36;7.53;;;1.70;;
60211;SDS011;46079;48.686;15.598;2023-03-30T04:16:02;7.38;;;2.20;;
60211;SDS011;46079;48.686;15.598;2023-03-30T04:18:28;6.45;;;1.98;;
60211;SDS011;46079;48.686;15.598;2023-03-30T04:20:57;7.00;;;1.98;;
60211;SDS011;46079;48.686;15.598;2023-03-30T04:23:27;6.13;;;1.80;;
60211;SDS011;46079;48.686;15.598;2023-03-30T04:26:02;6.65;;;1.65;;
60211;SDS011;46079;48.686;15.598;2023-03-30T04:28:29;7.70;;;2.10;;
60211;SDS011;46079;48.686;15.598;2023-03-30T04:31:00;6.80;;;1.80;;
60211;SDS011;46079;48.686;15.598;2023-03-30T04:33:28;6.20;;;1.77;;
60211;SDS011;46079;48.686;15.598;2023-03-30T04:35:54;6.22;;;1.85;;
60211;SDS011;46079;48.686;15.598;2023-03-30T04:38:20;6.68;;;1.73;;
60211;SDS011;46079;48.686;15.598;2023-03-30T04:40:49;5.80;;;1.73;;
60211;SDS011;46079;48.686;15.598;2023-03-30T04:43:16;6.40;;;1.70;;
60211;SDS011;46079;48.686;15.598;2023-03-30T04:45:49;6.07;;;1.73;;
60211;SDS011;46079;48.686;15.598;2023-03-30T04:48:16;7.97;;;1.70;;
60211;SDS011;46079;48.686;15.598;2023-03-30T04:50:44;5.25;;;1.63;;
60211;SDS011;46079;48.686;15.598;2023-03-30T04:53:13;5.85;;;1.65;;
60211;SDS011;46079;48.686;15.598;2023-03-30T04:55:40;6.78;;;1.98;;
60211;SDS011;46079;48.686;15.598;2023-03-30T04:58:08;5.43;;;1.58;;
60211;SDS011;46079;48.686;15.598;2023-03-30T05:00:35;6.47;;;1.80;;
60211;SDS011;46079;48.686;15.598;2023-03-30T05:03:02;6.30;;;1.77;;
60211;SDS011;46079;48.686;15.598;2023-03-30T05:05:28;4.97;;;1.50;;
60211;SDS011;46079;48.686;15.598;2023-03-30T05:07:54;5.75;;;1.77;;
60211;SDS011;46079;48.686;15.598;2023-03-30T05:10:20;6.07;;;2.03;;
60211;SDS011;46079;48.686;15.598;2023-03-30T05:12:45;7.43;;;1.83;;
60211;SDS011;46079;48.686;15.598;2023-03-30T05:15:11;5.80;;;1.70;;
60211;SDS011;46079;48.686;15.598;2023-03-30T05:17:36;10.38;;;4.35;;
60211;SDS011;46079;48.686;15.598;2023-03-30T05:20:03;10.10;;;5.03;;
60211;SDS011;46079;48.686;15.598;2023-03-30T05:22:33;10.88;;;5.72;;
60211;SDS011;46079;48.686;15.598;2023-03-30T05:24:59;11.70;;;5.68;;
60211;SDS011;46079;48.686;15.598;2023-03-30T05:27:25;11.38;;;5.10;;
60211;SDS011;46079;48.686;15.598;2023-03-30T05:29:51;10.38;;;4.90;;
60211;SDS011;46079;48.686;15.598;2023-03-30T05:32:16;11.55;;;5.45;;
60211;SDS011;46079;48.686;15.598;2023-03-30T05:34:42;10.18;;;5.22;;
60211;SDS011;46079;48.686;15.598;2023-03-30T05:37:07;11.63;;;5.32;;
60211;SDS011;46079;48.686;15.598;2023-03-30T05:39:33;12.02;;;5.60;;
60211;SDS011;46079;48.686;15.598;2023-03-30T05:41:58;9.90;;;4.97;;
60211;SDS011;46079;48.686;15.598;2023-03-30T05:44:24;10.32;;;5.15;;
60211;SDS011;46079;48.686;15.598;2023-03-30T05:46:49;11.85;;;5.53;;
60211;SDS011;46079;48.686;15.598;2023-03-30T05:49:15;11.55;;;5.75;;
60211;SDS011;46079;48.686;15.598;2023-03-30T05:51:50;12.75;;;5.10;;
60211;SDS011;46079;48.686;15.598;2023-03-30T05:54:16;10.50;;;4.97;;
60211;SDS011;46079;48.686;15.598;2023-03-30T05:56:41;12.10;;;5.55;;
60211;SDS011;46079;48.686;15.598;2023-03-30T05:59:07;10.25;;;5.05;;
60211;SDS011;46079;48.686;15.598;2023-03-30T06:01:34;11.77;;;5.28;;
60211;SDS011;46079;48.686;15.598;2023-03-30T06:03:59;10.25;;;4.93;;
60211;SDS011;46079;48.686;15.598;2023-03-30T06:06:25;10.00;;;4.57;;
60211;SDS011;46079;48.686;15.598;2023-03-30T06:08:51;10.27;;;4.40;;
60211;SDS011;46079;48.686;15.598;2023-03-30T06:11:17;8.90;;;3.45;;
60211;SDS011;46079;48.686;15.598;2023-03-30T06:13:43;8.35;;;3.70;;
60211;SDS011;46079;48.686;15.598;2023-03-30T06:16:09;8.50;;;3.10;;
60211;SDS011;46079;48.686;15.598;2023-03-30T06:18:34;7.72;;;2.78;;
60211;SDS011;46079;48.686;15.598;2023-03-30T06:21:00;8.05;;;2.70;;
60211;SDS011;46079;48.686;15.598;2023-03-30T06:23:26;8.50;;;2.78;;
60211;SDS011;46079;48.686;15.598;2023-03-30T06:25:52;10.98;;;3.28;;
60211;SDS011;46079;48.686;15.598;2023-03-30T06:28:19;15.38;;;3.90;;
60211;SDS011;46079;48.686;15.598;2023-03-30T06:30:46;11.70;;;3.67;;
60211;SDS011;46079;48.686;15.598;2023-03-30T06:33:16;13.07;;;3.88;;
60211;SDS011;46079;48.686;15.598;2023-03-30T06:35:43;14.35;;;4.20;;
60211;SDS011;46079;48.686;15.598;2023-03-30T06:38:12;15.45;;;4.18;;
60211;SDS011;46079;48.686;15.598;2023-03-30T06:40:38;11.57;;;3.78;;
60211;SDS011;46079;48.686;15.598;2023-03-30T06:43:05;11.52;;;4.03;;
60211;SDS011;46079;48.686;15.598;2023-03-30T06:45:31;12.77;;;3.72;;
60211;SDS011;46079;48.686;15.598;2023-03-30T06:47:56;13.43;;;3.85;;
60211;SDS011;46079;48.686;15.598;2023-03-30T06:50:22;16.13;;;4.38;;
60211;SDS011;46079;48.686;15.598;2023-03-30T06:52:48;12.48;;;3.88;;
60211;SDS011;46079;48.686;15.598;2023-03-30T06:55:13;13.13;;;3.90;;
60211;SDS011;46079;48.686;15.598;2023-03-30T06:57:39;14.13;;;3.83;;
60211;SDS011;46079;48.686;15.598;2023-03-30T07:00:04;16.92;;;4.30;;
60211;SDS011;46079;48.686;15.598;2023-03-30T07:02:40;12.25;;;4.00;;
60211;SDS011;46079;48.686;15.598;2023-03-30T07:05:06;13.80;;;4.03;;
60211;SDS011;46079;48.686;15.598;2023-03-30T07:07:32;11.02;;;3.67;;
60211;SDS011;46079;48.686;15.598;2023-03-30T07:09:59;13.75;;;3.65;;
60211;SDS011;46079;48.686;15.598;2023-03-30T07:12:25;13.52;;;3.97;;
60211;SDS011;46079;48.686;15.598;2023-03-30T07:14:50;12.70;;;3.50;;
60211;SDS011;46079;48.686;15.598;2023-03-30T07:17:16;11.48;;;3.58;;
60211;SDS011;46079;48.686;15.598;2023-03-30T07:19:41;12.40;;;3.90;;
60211;SDS011;46079;48.686;15.598;2023-03-30T07:22:06;11.43;;;4.07;;
60211;SDS011;46079;48.686;15.598;2023-03-30T07:24:32;13.05;;;3.80;;
60211;SDS011;46079;48.686;15.598;2023-03-30T07:26:58;11.90;;;3.83;;
60211;SDS011;46079;48.686;15.598;2023-03-30T07:29:23;12.88;;;3.63;;
60211;SDS011;46079;48.686;15.598;2023-03-30T07:31:51;14.38;;;3.80;;
60211;SDS011;46079;48.686;15.598;2023-03-30T07:34:16;12.95;;;3.97;;
60211;SDS011;46079;48.686;15.598;2023-03-30T07:36:42;12.63;;;3.63;;
60211;SDS011;46079;48.686;15.598;2023-03-30T07:39:07;12.63;;;3.70;;
60211;SDS011;46079;48.686;15.598;2023-03-30T07:41:33;13.68;;;3.70;;
60211;SDS011;46079;48.686;15.598;2023-03-30T07:43:58;11.90;;;3.85;;
60211;SDS011;46079;48.686;15.598;2023-03-30T07:46:24;12.52;;;3.55;;
60211;SDS011;46079;48.686;15.598;2023-03-30T07:48:50;11.63;;;3.50;;
60211;SDS011;46079;48.686;15.598;2023-03-30T07:51:16;11.10;;;4.15;;
60211;SDS011;46079;48.686;15.598;2023-03-30T07:53:42;12.85;;;3.95;;
60211;SDS011;46079;48.686;15.598;2023-03-30T07:56:08;12.15;;;3.78;;
60211;SDS011;46079;48.686;15.598;2023-03-30T07:58:34;11.73;;;3.38;;
60211;SDS011;46079;48.686;15.598;2023-03-30T08:01:01;12.88;;;3.85;;
60211;SDS011;46079;48.686;15.598;2023-03-30T08:03:27;13.38;;;3.55;;
60211;SDS011;46079;48.686;15.598;2023-03-30T08:05:53;11.32;;;3.60;;
60211;SDS011;46079;48.686;15.598;2023-03-30T08:08:19;12.27;;;3.72;;
60211;SDS011;46079;48.686;15.598;2023-03-30T08:10:45;12.43;;;3.53;;
60211;SDS011;46079;48.686;15.598;2023-03-30T08:13:10;11.05;;;3.70;;
60211;SDS011;46079;48.686;15.598;2023-03-30T08:15:37;11.90;;;3.85;;
60211;SDS011;46079;48.686;15.598;2023-03-30T08:18:02;13.52;;;3.53;;
60211;SDS011;46079;48.686;15.598;2023-03-30T08:20:35;13.68;;;3.40;;
60211;SDS011;46079;48.686;15.598;2023-03-30T08:23:02;12.18;;;3.88;;
60211;SDS011;46079;48.686;15.598;2023-03-30T08:25:31;10.52;;;3.22;;
60211;SDS011;46079;48.686;15.598;2023-03-30T08:27:57;12.15;;;3.40;;
60211;SDS011;46079;48.686;15.598;2023-03-30T08:30:22;10.50;;;3.38;;
60211;SDS011;46079;48.686;15.598;2023-03-30T08:32:47;11.50;;;3.70;;
60211;SDS011;46079;48.686;15.598;2023-03-30T08:35:13;11.52;;;3.60;;
60211;SDS011;46079;48.686;15.598;2023-03-30T08:37:39;11.32;;;3.35;;
60211;SDS011;46079;48.686;15.598;2023-03-30T08:40:05;10.80;;;3.47;;
60211;SDS011;46079;48.686;15.598;2023-03-30T08:45:41;9.82;;;3.45;;
60211;SDS011;46079;48.686;15.598;2023-03-30T08:48:14;10.23;;;3.38;;
60211;SDS011;46079;48.686;15.598;2023-03-30T08:50:59;11.68;;;3.78;;
60211;SDS011;46079;48.686;15.598;2023-03-30T08:53:30;11.43;;;3.30;;
60211;SDS011;46079;48.686;15.598;2023-03-30T08:56:03;10.20;;;3.67;;
60211;SDS011;46079;48.686;15.598;2023-03-30T09:09:19;9.95;;;3.10;;
60211;SDS011;46079;48.686;15.598;2023-03-30T09:11:48;9.32;;;3.13;;
60211;SDS011;46079;48.686;15.598;2023-03-30T09:14:38;11.02;;;3.35;;
60211;SDS011;46079;48.686;15.598;2023-03-30T09:17:12;11.40;;;3.30;;
60211;SDS011;46079;48.686;15.598;2023-03-30T09:19:45;11.75;;;3.45;;
60211;SDS011;46079;48.686;15.598;2023-03-30T09:22:15;11.43;;;3.20;;
60211;SDS011;46079;48.686;15.598;2023-03-30T09:24:43;9.75;;;3.42;;
60211;SDS011;46079;48.686;15.598;2023-03-30T09:27:14;10.82;;;3.28;;
60211;SDS011;46079;48.686;15.598;2023-03-30T09:29:47;11.77;;;3.42;;
60211;SDS011;46079;48.686;15.598;2023-03-30T09:35:13;9.57;;;2.80;;
60211;SDS011;46079;48.686;15.598;2023-03-30T09:37:45;10.88;;;3.40;;
60211;SDS011;46079;48.686;15.598;2023-03-30T09:40:17;10.10;;;3.15;;
60211;SDS011;46079;48.686;15.598;2023-03-30T09:42:48;10.23;;;3.53;;
60211;SDS011;46079;48.686;15.598;2023-03-30T09:45:29;10.27;;;3.40;;
60211;SDS011;46079;48.686;15.598;2023-03-30T09:48:02;11.15;;;3.42;;
60211;SDS011;46079;48.686;15.598;2023-03-30T09:50:29;9.90;;;3.35;;
60211;SDS011;46079;48.686;15.598;2023-03-30T09:53:02;10.50;;;3.15;;
60211;SDS011;46079;48.686;15.598;2023-03-30T09:55:34;10.57;;;3.22;;
60211;SDS011;46079;48.686;15.598;2023-03-30T09:58:20;10.02;;;3.10;;
60211;SDS011;46079;48.686;15.598;2023-03-30T10:03:41;8.70;;;3.05;;
60211;SDS011;46079;48.686;15.598;2023-03-30T10:06:09;8.25;;;2.80;;
60211;SDS011;46079;48.686;15.598;2023-03-30T10:08:42;9.40;;;3.10;;
60211;SDS011;46079;48.686;15.598;2023-03-30T10:11:18;9.32;;;3.10;;
60211;SDS011;46079;48.686;15.598;2023-03-30T10:13:47;9.73;;;3.10;;
60211;SDS011;46079;48.686;15.598;2023-03-30T10:16:23;9.18;;;3.10;;
60211;SDS011;46079;48.686;15.598;2023-03-30T10:19:03;10.35;;;3.22;;
60211;SDS011;46079;48.686;15.598;2023-03-30T10:21:40;9.02;;;3.08;;
60211;SDS011;46079;48.686;15.598;2023-03-30T10:26:44;8.25;;;2.85;;
60211;SDS011;46079;48.686;15.598;2023-03-30T10:29:12;9.90;;;3.00;;
60211;SDS011;46079;48.686;15.598;2023-03-30T10:31:44;8.07;;;2.78;;
60211;SDS011;46079;48.686;15.598;2023-03-30T10:34:22;8.40;;;2.78;;
60211;SDS011;46079;48.686;15.598;2023-03-30T10:36:58;9.15;;;2.85;;
60211;SDS011;46079;48.686;15.598;2023-03-30T10:39:28;11.00;;;3.20;;
60211;SDS011;46079;48.686;15.598;2023-03-30T10:41:57;9.25;;;2.90;;
60211;SDS011;46079;48.686;15.598;2023-03-30T10:47:17;8.93;;;2.80;;
60211;SDS011;46079;48.686;15.598;2023-03-30T10:49:49;9.32;;;2.60;;
60211;SDS011;46079;48.686;15.598;2023-03-30T10:55:17;8.38;;;2.80;;
60211;SDS011;46079;48.686;15.598;2023-03-30T11:03:31;9.05;;;2.60;;
60211;SDS011;46079;48.686;15.598;2023-03-30T11:06:17;9.45;;;2.88;;
60211;SDS011;46079;48.686;15.598;2023-03-30T11:08:48;8.80;;;2.63;;
60211;SDS011;46079;48.686;15.598;2023-03-30T11:11:18;9.75;;;2.85;;
60211;SDS011;46079;48.686;15.598;2023-03-30T11:14:18;7.60;;;2.63;;
60211;SDS011;46079;48.686;15.598;2023-03-30T11:17:06;9.80;;;3.10;;
60211;SDS011;46079;48.686;15.598;2023-03-30T11:19:43;9.55;;;2.80;;
60211;SDS011;46079;48.686;15.598;2023-03-30T11:22:21;8.23;;;2.67;;
60211;SDS011;46079;48.686;15.598;2023-03-30T11:24:59;7.75;;;2.80;;
60211;SDS011;46079;48.686;15.598;2023-03-30T11:27:28;8.93;;;2.72;;
60211;SDS011;46079;48.686;15.598;2023-03-30T11:30:09;7.80;;;2.47;;
60211;SDS011;46079;48.686;15.598;2023-03-30T11:36:14;8.93;;;2.70;;
60211;SDS011;46079;48.686;15.598;2023-03-30T11:40:55;7.97;;;2.28;;
60211;SDS011;46079;48.686;15.598;2023-03-30T11:43:29;8.70;;;2.80;;
60211;SDS011;46079;48.686;15.598;2023-03-30T11:46:08;8.65;;;2.92;;
60211;SDS011;46079;48.686;15.598;2023-03-30T12:00:16;8.00;;;2.72;;
60211;SDS011;46079;48.686;15.598;2023-03-30T12:03:01;8.43;;;2.70;;
60211;SDS011;46079;48.686;15.598;2023-03-30T12:05:41;8.38;;;2.60;;
60211;SDS011;46079;48.686;15.598;2023-03-30T12:14:02;8.95;;;2.65;;
60211;SDS011;46079;48.686;15.598;2023-03-30T12:16:48;8.73;;;2.80;;
60211;SDS011;46079;48.686;15.598;2023-03-30T12:19:21;8.30;;;2.90;;
60211;SDS011;46079;48.686;15.598;2023-03-30T12:22:03;8.68;;;2.80;;
60211;SDS011;46079;48.686;15.598;2023-03-30T12:24:44;8.35;;;2.42;;
60211;SDS011;46079;48.686;15.598;2023-03-30T12:27:16;7.72;;;2.50;;
60211;SDS011;46079;48.686;15.598;2023-03-30T12:29:42;8.45;;;2.75;;
60211;SDS011;46079;48.686;15.598;2023-03-30T12:32:23;8.18;;;2.70;;
60211;SDS011;46079;48.686;15.598;2023-03-30T12:34:49;8.07;;;2.42;;
60211;SDS011;46079;48.686;15.598;2023-03-30T12:37:17;7.40;;;2.42;;
60211;SDS011;46079;48.686;15.598;2023-03-30T12:42:39;9.13;;;2.80;;
60211;SDS011;46079;48.686;15.598;2023-03-30T13:03:34;8.13;;;2.63;;
60211;SDS011;46079;48.686;15.598;2023-03-30T13:06:04;8.27;;;2.55;;
60211;SDS011;46079;48.686;15.598;2023-03-30T13:08:36;8.93;;;2.40;;
60211;SDS011;46079;48.686;15.598;2023-03-30T13:13:52;8.43;;;2.50;;
60211;SDS011;46079;48.686;15.598;2023-03-30T13:52:11;8.57;;;2.60;;
60211;SDS011;46079;48.686;15.598;2023-03-30T13:54:40;7.73;;;2.40;;
60211;SDS011;46079;48.686;15.598;2023-03-30T13:57:08;7.55;;;2.10;;
60211;SDS011;46079;48.686;15.598;2023-03-30T13:59:37;7.43;;;2.28;;
60211;SDS011;46079;48.686;15.598;2023-03-30T14:02:13;7.65;;;2.40;;
60211;SDS011;46079;48.686;15.598;2023-03-30T14:04:40;7.90;;;2.20;;
60211;SDS011;46079;48.686;15.598;2023-03-30T14:07:13;7.72;;;2.22;;
60211;SDS011;46079;48.686;15.598;2023-03-30T14:10:00;7.45;;;2.38;;
60211;SDS011;46079;48.686;15.598;2023-03-30T14:12:29;6.85;;;2.30;;
60211;SDS011;46079;48.686;15.598;2023-03-30T14:14:56;7.20;;;2.25;;
60211;SDS011;46079;48.686;15.598;2023-03-30T14:17:22;7.57;;;2.53;;
60211;SDS011;46079;48.686;15.598;2023-03-30T14:20:05;7.38;;;2.22;;
60211;SDS011;46079;48.686;15.598;2023-03-30T14:22:38;8.23;;;2.58;;
60211;SDS011;46079;48.686;15.598;2023-03-30T14:27:54;7.03;;;2.10;;
60211;SDS011;46079;48.686;15.598;2023-03-30T14:30:25;7.13;;;2.47;;
60211;SDS011;46079;48.686;15.598;2023-03-30T14:33:03;7.28;;;2.33;;
60211;SDS011;46079;48.686;15.598;2023-03-30T14:35:33;7.07;;;2.42;;
60211;SDS011;46079;48.686;15.598;2023-03-30T14:38:05;7.22;;;2.20;;
60211;SDS011;46079;48.686;15.598;2023-03-30T14:40:31;7.30;;;2.30;;
60211;SDS011;46079;48.686;15.598;2023-03-30T14:43:03;7.70;;;2.42;;
60211;SDS011;46079;48.686;15.598;2023-03-30T14:45:28;8.27;;;2.53;;
60211;SDS011;46079;48.686;15.598;2023-03-30T14:47:57;7.68;;;2.50;;
60211;SDS011;46079;48.686;15.598;2023-03-30T14:50:22;7.28;;;2.28;;
60211;SDS011;46079;48.686;15.598;2023-03-30T14:52:48;7.47;;;2.30;;
60211;SDS011;46079;48.686;15.598;2023-03-30T14:55:20;6.28;;;1.95;;
60211;SDS011;46079;48.686;15.598;2023-03-30T14:57:48;7.57;;;2.08;;
60211;SDS011;46079;48.686;15.598;2023-03-30T15:00:18;7.05;;;2.28;;
60211;SDS011;46079;48.686;15.598;2023-03-30T15:02:55;6.90;;;2.08;;
60211;SDS011;46079;48.686;15.598;2023-03-30T15:05:24;6.47;;;2.00;;
60211;SDS011;46079;48.686;15.598;2023-03-30T15:07:55;7.55;;;2.25;;
60211;SDS011;46079;48.686;15.598;2023-03-30T15:10:41;7.15;;;2.20;;
60211;SDS011;46079;48.686;15.598;2023-03-30T15:13:10;7.10;;;2.40;;
60211;SDS011;46079;48.686;15.598;2023-03-30T15:15:42;7.85;;;2.40;;
60211;SDS011;46079;48.686;15.598;2023-03-30T15:18:08;7.20;;;2.20;;
60211;SDS011;46079;48.686;15.598;2023-03-30T15:20:44;6.53;;;1.92;;
60211;SDS011;46079;48.686;15.598;2023-03-30T15:23:10;6.22;;;2.03;;
60211;SDS011;46079;48.686;15.598;2023-03-30T15:25:46;6.72;;;2.20;;
60211;SDS011;46079;48.686;15.598;2023-03-30T15:28:17;6.93;;;2.10;;
60211;SDS011;46079;48.686;15.598;2023-03-30T15:30:44;7.10;;;2.20;;
60211;SDS011;46079;48.686;15.598;2023-03-30T15:35:43;7.07;;;2.03;;
60211;SDS011;46079;48.686;15.598;2023-03-30T15:40:47;6.47;;;2.00;;
60211;SDS011;46079;48.686;15.598;2023-03-30T15:43:22;8.20;;;2.30;;
60211;SDS011;46079;48.686;15.598;2023-03-30T15:48:47;7.45;;;2.40;;
60211;SDS011;46079;48.686;15.598;2023-03-30T15:53:51;7.18;;;2.45;;
60211;SDS011;46079;48.686;15.598;2023-03-30T15:59:12;6.53;;;1.95;;
60211;SDS011;46079;48.686;15.598;2023-03-30T16:01:46;6.88;;;2.20;;
60211;SDS011;46079;48.686;15.598;2023-03-30T16:04:16;6.78;;;2.00;;
60211;SDS011;46079;48.686;15.598;2023-03-30T16:06:43;7.63;;;2.30;;
60211;SDS011;46079;48.686;15.598;2023-03-30T16:09:08;7.07;;;2.10;;
60211;SDS011;46079;48.686;15.598;2023-03-30T16:11:34;6.55;;;2.08;;
60211;SDS011;46079;48.686;15.598;2023-03-30T16:14:00;7.60;;;2.35;;
60211;SDS011;46079;48.686;15.598;2023-03-30T16:16:27;6.93;;;2.45;;
60211;SDS011;46079;48.686;15.598;2023-03-30T16:18:52;6.75;;;2.10;;
60211;SDS011;46079;48.686;15.598;2023-03-30T16:21:18;6.88;;;2.28;;
60211;SDS011;46079;48.686;15.598;2023-03-30T16:23:44;6.88;;;2.30;;
60211;SDS011;46079;48.686;15.598;2023-03-30T16:26:10;7.40;;;2.30;;
60211;SDS011;46079;48.686;15.598;2023-03-30T16:28:36;7.72;;;2.30;;
60211;SDS011;46079;48.686;15.598;2023-03-30T16:31:03;6.55;;;1.98;;
60211;SDS011;46079;48.686;15.598;2023-03-30T16:33:34;7.40;;;2.05;;
60211;SDS011;46079;48.686;15.598;2023-03-30T16:36:00;7.20;;;2.30;;
60211;SDS011;46079;48.686;15.598;2023-03-30T16:38:25;6.40;;;2.10;;
60211;SDS011;46079;48.686;15.598;2023-03-30T16:40:52;7.05;;;2.25;;
60211;SDS011;46079;48.686;15.598;2023-03-30T16:43:20;6.25;;;1.92;;
60211;SDS011;46079;48.686;15.598;2023-03-30T16:45:45;7.47;;;2.30;;
60211;SDS011;46079;48.686;15.598;2023-03-30T16:48:11;6.07;;;1.90;;
60211;SDS011;46079;48.686;15.598;2023-03-30T16:50:42;7.13;;;2.10;;
60211;SDS011;46079;48.686;15.598;2023-03-30T16:53:10;6.68;;;2.10;;
60211;SDS011;46079;48.686;15.598;2023-03-30T16:55:36;6.85;;;2.17;;
60211;SDS011;46079;48.686;15.598;2023-03-30T16:58:03;7.05;;;1.95;;
60211;SDS011;46079;48.686;15.598;2023-03-30T17:00:31;6.45;;;2.10;;
60211;SDS011;46079;48.686;15.598;2023-03-30T17:03:17;6.70;;;2.28;;
60211;SDS011;46079;48.686;15.598;2023-03-30T17:05:43;7.18;;;2.00;;
60211;SDS011;46079;48.686;15.598;2023-03-30T17:08:22;7.68;;;2.13;;
60211;SDS011;46079;48.686;15.598;2023-03-30T17:10:49;7.45;;;2.30;;
60211;SDS011;46079;48.686;15.598;2023-03-30T17:13:16;7.95;;;2.10;;
60211;SDS011;46079;48.686;15.598;2023-03-30T17:15:42;6.68;;;2.15;;
60211;SDS011;46079;48.686;15.598;2023-03-30T17:18:41;7.00;;;2.22;;
60211;SDS011;46079;48.686;15.598;2023-03-30T17:20:59;6.93;;;2.13;;
60211;SDS011;46079;48.686;15.598;2023-03-30T17:23:27;7.50;;;2.20;;
60211;SDS011;46079;48.686;15.598;2023-03-30T17:25:54;7.15;;;2.25;;
60211;SDS011;46079;48.686;15.598;2023-03-30T17:28:22;6.55;;;2.30;;
60211;SDS011;46079;48.686;15.598;2023-03-30T17:30:50;7.10;;;2.20;;
60211;SDS011;46079;48.686;15.598;2023-03-30T17:33:18;6.75;;;2.10;;
60211;SDS011;46079;48.686;15.598;2023-03-30T17:35:45;7.03;;;2.13;;
60211;SDS011;46079;48.686;15.598;2023-03-30T17:38:13;6.05;;;1.98;;
60211;SDS011;46079;48.686;15.598;2023-03-30T17:40:40;6.55;;;2.10;;
60211;SDS011;46079;48.686;15.598;2023-03-30T17:43:08;6.72;;;2.10;;
60211;SDS011;46079;48.686;15.598;2023-03-30T17:45:35;6.93;;;2.20;;
60211;SDS011;46079;48.686;15.598;2023-03-30T17:48:02;7.45;;;2.10;;
60211;SDS011;46079;48.686;15.598;2023-03-30T17:50:33;6.18;;;2.05;;